sensor_id;sensor_type;location;lat;lon;timestamp;P1;P2;P0
49343;PMS5003;35210;41.606;-87.602;2023-01-23T00:01:36;17.60;17.40;9.00
49343;PMS5003;35210;41.606;-87.602;2023-01-23T00:04:06;22.00;18.20;10.00
49343;PMS5003;35210;41.606;-87.602;2023-01-23T00:06:35;21.20;17.40;9.20
49343;PMS5003;35210;41.606;-87.602;2023-01-23T00:09:03;17.00;16.40;5.40
49343;PMS5003;35210;41.606;-87.602;2023-01-23T00:11:32;8.60;8.40;1.00
49343;PMS5003;35210;41.606;-87.602;2023-01-23T00:14:01;20.40;19.40;6.80
49343;PMS5003;35210;41.606;-87.602;2023-01-23T00:16:30;15.40;12.20;7.80
49343;PMS5003;35210;41.606;-87.602;2023-01-23T00:18:59;21.80;17.00;9.00
49343;PMS5003;35210;41.606;-87.602;2023-01-23T00:21:29;14.00;12.80;5.20
49343;PMS5003;35210;41.606;-87.602;2023-01-23T00:23:57;14.80;13.00;7.20
49343;PMS5003;35210;41.606;-87.602;2023-01-23T00:26:28;21.80;15.60;9.00
49343;PMS5003;35210;41.606;-87.602;2023-01-23T00:28:58;20.20;17.00;6.40
49343;PMS5003;35210;41.606;-87.602;2023-01-23T00:31:27;13.00;11.20;7.60
49343;PMS5003;35210;41.606;-87.602;2023-01-23T00:33:57;15.60;13.00;5.60
49343;PMS5003;35210;41.606;-87.602;2023-01-23T00:36:29;18.20;18.00;9.00
49343;PMS5003;35210;41.606;-87.602;2023-01-23T00:39:00;16.00;13.80;5.80
49343;PMS5003;35210;41.606;-87.602;2023-01-23T00:41:28;14.60;9.80;6.80
49343;PMS5003;35210;41.606;-87.602;2023-01-23T00:43:57;17.80;16.00;8.40
49343;PMS5003;35210;41.606;-87.602;2023-01-23T00:46:25;20.60;17.80;9.20
49343;PMS5003;35210;41.606;-87.602;2023-01-23T00:48:53;23.00;20.20;8.00
49343;PMS5003;35210;41.606;-87.602;2023-01-23T00:51:21;15.60;12.40;6.80
49343;PMS5003;35210;41.606;-87.602;2023-01-23T00:53:51;17.60;16.80;9.20
49343;PMS5003;35210;41.606;-87.602;2023-01-23T00:56:20;16.00;15.20;8.00
49343;PMS5003;35210;41.606;-87.602;2023-01-23T00:58:48;23.00;16.80;8.80
49343;PMS5003;35210;41.606;-87.602;2023-01-23T01:01:16;15.40;12.40;6.80
49343;PMS5003;35210;41.606;-87.602;2023-01-23T01:03:44;20.00;13.00;7.80
49343;PMS5003;35210;41.606;-87.602;2023-01-23T01:06:13;20.80;19.20;10.00
49343;PMS5003;35210;41.606;-87.602;2023-01-23T01:08:41;17.20;14.80;8.00
49343;PMS5003;35210;41.606;-87.602;2023-01-23T01:11:11;17.00;17.00;9.00
49343;PMS5003;35210;41.606;-87.602;2023-01-23T01:13:39;19.80;19.00;8.60
49343;PMS5003;35210;41.606;-87.602;2023-01-23T01:16:08;21.00;19.00;9.40
49343;PMS5003;35210;41.606;-87.602;2023-01-23T01:18:37;20.80;19.60;9.00
49343;PMS5003;35210;41.606;-87.602;2023-01-23T01:21:06;24.40;21.00;12.00
49343;PMS5003;35210;41.606;-87.602;2023-01-23T01:23:35;23.60;20.80;7.40
49343;PMS5003;35210;41.606;-87.602;2023-01-23T01:26:04;20.60;18.20;9.80
49343;PMS5003;35210;41.606;-87.602;2023-01-23T01:28:36;17.80;13.80;8.60
49343;PMS5003;35210;41.606;-87.602;2023-01-23T01:31:06;20.80;16.40;8.80
49343;PMS5003;35210;41.606;-87.602;2023-01-23T01:33:37;27.80;18.60;11.20
49343;PMS5003;35210;41.606;-87.602;2023-01-23T01:36:07;24.40;22.80;12.40
49343;PMS5003;35210;41.606;-87.602;2023-01-23T01:38:35;17.80;13.40;2.80
49343;PMS5003;35210;41.606;-87.602;2023-01-23T01:41:05;18.00;14.60;8.80
49343;PMS5003;35210;41.606;-87.602;2023-01-23T01:43:34;22.20;20.40;10.40
49343;PMS5003;35210;41.606;-87.602;2023-01-23T01:46:12;19.20;18.80;9.60
49343;PMS5003;35210;41.606;-87.602;2023-01-23T01:48:47;20.00;17.20;5.40
49343;PMS5003;35210;41.606;-87.602;2023-01-23T01:51:29;29.00;23.20;11.20
49343;PMS5003;35210;41.606;-87.602;2023-01-23T01:54:01;23.80;20.80;10.40
49343;PMS5003;35210;41.606;-87.602;2023-01-23T01:56:34;19.20;17.60;9.20
49343;PMS5003;35210;41.606;-87.602;2023-01-23T01:59:09;14.80;13.00;7.20
49343;PMS5003;35210;41.606;-87.602;2023-01-23T02:01:39;23.80;21.40;10.00
49343;PMS5003;35210;41.606;-87.602;2023-01-23T02:04:08;18.80;17.80;8.60
49343;PMS5003;35210;41.606;-87.602;2023-01-23T02:06:39;23.80;20.60;11.20
49343;PMS5003;35210;41.606;-87.602;2023-01-23T02:09:11;22.60;16.40;8.40
49343;PMS5003;35210;41.606;-87.602;2023-01-23T02:11:45;15.20;15.20;9.00
49343;PMS5003;35210;41.606;-87.602;2023-01-23T02:14:17;21.80;20.00;11.20
49343;PMS5003;35210;41.606;-87.602;2023-01-23T02:17:00;25.00;19.80;12.00
49343;PMS5003;35210;41.606;-87.602;2023-01-23T02:19:33;27.40;23.00;10.20
49343;PMS5003;35210;41.606;-87.602;2023-01-23T02:22:14;24.20;23.60;12.00
49343;PMS5003;35210;41.606;-87.602;2023-01-23T02:24:54;23.20;22.00;11.20
49343;PMS5003;35210;41.606;-87.602;2023-01-23T02:27:32;20.60;19.40;12.20
49343;PMS5003;35210;41.606;-87.602;2023-01-23T02:30:00;29.00;23.40;12.00
49343;PMS5003;35210;41.606;-87.602;2023-01-23T02:32:30;25.00;25.00;11.80
49343;PMS5003;35210;41.606;-87.602;2023-01-23T02:35:01;35.60;29.80;15.20
49343;PMS5003;35210;41.606;-87.602;2023-01-23T02:37:36;26.80;25.40;13.00
49343;PMS5003;35210;41.606;-87.602;2023-01-23T02:40:09;29.00;27.00;12.60
49343;PMS5003;35210;41.606;-87.602;2023-01-23T02:42:40;25.00;20.60;10.20
49343;PMS5003;35210;41.606;-87.602;2023-01-23T02:45:10;27.60;22.20;10.00
49343;PMS5003;35210;41.606;-87.602;2023-01-23T02:47:39;24.40;16.00;9.20
49343;PMS5003;35210;41.606;-87.602;2023-01-23T02:50:08;26.80;25.80;13.20
49343;PMS5003;35210;41.606;-87.602;2023-01-23T02:52:38;24.00;21.20;9.00
49343;PMS5003;35210;41.606;-87.602;2023-01-23T02:55:06;27.20;23.00;13.00
49343;PMS5003;35210;41.606;-87.602;2023-01-23T02:57:35;33.00;25.00;13.00
49343;PMS5003;35210;41.606;-87.602;2023-01-23T03:00:05;28.40;22.40;10.40
49343;PMS5003;35210;41.606;-87.602;2023-01-23T03:02:45;17.80;14.60;6.40
49343;PMS5003;35210;41.606;-87.602;2023-01-23T03:05:14;26.00;21.40;12.80
49343;PMS5003;35210;41.606;-87.602;2023-01-23T03:07:43;28.00;23.40;10.80
49343;PMS5003;35210;41.606;-87.602;2023-01-23T03:10:12;26.60;22.80;13.00
49343;PMS5003;35210;41.606;-87.602;2023-01-23T03:12:42;24.00;20.00;11.20
49343;PMS5003;35210;41.606;-87.602;2023-01-23T03:15:12;24.80;23.20;11.20
49343;PMS5003;35210;41.606;-87.602;2023-01-23T03:17:40;27.60;19.80;12.20
49343;PMS5003;35210;41.606;-87.602;2023-01-23T03:20:09;31.00;21.20;11.20
49343;PMS5003;35210;41.606;-87.602;2023-01-23T03:22:38;26.00;23.00;9.20
49343;PMS5003;35210;41.606;-87.602;2023-01-23T03:25:07;28.20;27.20;13.00
49343;PMS5003;35210;41.606;-87.602;2023-01-23T03:27:36;37.20;26.80;13.40
49343;PMS5003;35210;41.606;-87.602;2023-01-23T03:30:05;32.80;27.00;16.20
49343;PMS5003;35210;41.606;-87.602;2023-01-23T03:32:42;27.80;26.00;13.80
49343;PMS5003;35210;41.606;-87.602;2023-01-23T03:35:11;37.00;29.40;13.20
49343;PMS5003;35210;41.606;-87.602;2023-01-23T03:37:41;36.20;26.40;15.20
49343;PMS5003;35210;41.606;-87.602;2023-01-23T03:40:13;28.20;22.00;13.00
49343;PMS5003;35210;41.606;-87.602;2023-01-23T03:43:01;30.20;25.60;14.40
49343;PMS5003;35210;41.606;-87.602;2023-01-23T03:45:30;30.80;25.80;13.00
49343;PMS5003;35210;41.606;-87.602;2023-01-23T03:48:00;31.80;23.80;13.00
49343;PMS5003;35210;41.606;-87.602;2023-01-23T03:50:28;37.20;30.80;16.00
49343;PMS5003;35210;41.606;-87.602;2023-01-23T03:52:57;31.00;27.60;15.60
49343;PMS5003;35210;41.606;-87.602;2023-01-23T03:55:25;29.80;23.20;10.00
49343;PMS5003;35210;41.606;-87.602;2023-01-23T03:57:53;30.60;23.60;13.60
49343;PMS5003;35210;41.606;-87.602;2023-01-23T04:00:21;34.80;30.60;16.00
49343;PMS5003;35210;41.606;-87.602;2023-01-23T04:02:49;32.20;27.20;13.40
49343;PMS5003;35210;41.606;-87.602;2023-01-23T04:05:19;40.80;33.40;16.80
49343;PMS5003;35210;41.606;-87.602;2023-01-23T04:07:47;30.60;25.20;14.40
49343;PMS5003;35210;41.606;-87.602;2023-01-23T04:10:15;37.60;32.40;17.40
49343;PMS5003;35210;41.606;-87.602;2023-01-23T04:12:44;36.20;30.60;17.00
49343;PMS5003;35210;41.606;-87.602;2023-01-23T04:15:12;36.20;31.00;16.40
49343;PMS5003;35210;41.606;-87.602;2023-01-23T04:17:41;29.80;28.20;15.80
49343;PMS5003;35210;41.606;-87.602;2023-01-23T04:20:09;38.80;32.00;15.00
49343;PMS5003;35210;41.606;-87.602;2023-01-23T04:22:39;32.20;30.80;16.40
49343;PMS5003;35210;41.606;-87.602;2023-01-23T04:25:07;31.40;26.20;13.60
49343;PMS5003;35210;41.606;-87.602;2023-01-23T04:27:36;39.00;33.80;15.00
49343;PMS5003;35210;41.606;-87.602;2023-01-23T04:30:04;34.00;28.00;15.00
49343;PMS5003;35210;41.606;-87.602;2023-01-23T04:32:34;38.00;31.80;16.80
49343;PMS5003;35210;41.606;-87.602;2023-01-23T04:35:02;35.60;29.00;13.60
49343;PMS5003;35210;41.606;-87.602;2023-01-23T04:37:30;26.20;23.20;13.40
49343;PMS5003;35210;41.606;-87.602;2023-01-23T04:40:00;34.20;30.00;16.20
49343;PMS5003;35210;41.606;-87.602;2023-01-23T04:42:29;39.00;35.40;18.20
49343;PMS5003;35210;41.606;-87.602;2023-01-23T04:44:57;30.00;28.60;15.20
49343;PMS5003;35210;41.606;-87.602;2023-01-23T04:47:26;38.60;34.40;16.60
49343;PMS5003;35210;41.606;-87.602;2023-01-23T04:49:55;38.60;30.60;16.00
49343;PMS5003;35210;41.606;-87.602;2023-01-23T04:52:23;34.20;32.00;20.00
49343;PMS5003;35210;41.606;-87.602;2023-01-23T04:54:51;42.20;33.00;18.60
49343;PMS5003;35210;41.606;-87.602;2023-01-23T04:57:21;35.40;27.80;17.20
49343;PMS5003;35210;41.606;-87.602;2023-01-23T04:59:50;35.20;33.00;15.60
49343;PMS5003;35210;41.606;-87.602;2023-01-23T05:02:18;26.60;25.00;12.00
49343;PMS5003;35210;41.606;-87.602;2023-01-23T05:04:46;37.80;34.80;17.60
49343;PMS5003;35210;41.606;-87.602;2023-01-23T05:07:14;37.80;31.20;16.60
49343;PMS5003;35210;41.606;-87.602;2023-01-23T05:09:42;34.00;27.20;14.20
49343;PMS5003;35210;41.606;-87.602;2023-01-23T05:12:11;29.00;25.20;12.60
49343;PMS5003;35210;41.606;-87.602;2023-01-23T05:14:41;35.80;28.20;16.00
49343;PMS5003;35210;41.606;-87.602;2023-01-23T05:17:09;30.40;25.40;13.80
49343;PMS5003;35210;41.606;-87.602;2023-01-23T05:19:37;33.20;28.60;13.00
49343;PMS5003;35210;41.606;-87.602;2023-01-23T05:22:05;39.40;29.00;16.00
49343;PMS5003;35210;41.606;-87.602;2023-01-23T05:24:34;42.20;30.60;14.20
49343;PMS5003;35210;41.606;-87.602;2023-01-23T05:27:02;26.40;21.80;8.00
49343;PMS5003;35210;41.606;-87.602;2023-01-23T05:29:30;26.60;24.00;9.00
49343;PMS5003;35210;41.606;-87.602;2023-01-23T05:32:00;33.40;23.20;13.60
49343;PMS5003;35210;41.606;-87.602;2023-01-23T05:34:28;29.80;28.00;12.80
49343;PMS5003;35210;41.606;-87.602;2023-01-23T05:36:58;34.00;26.40;14.00
49343;PMS5003;35210;41.606;-87.602;2023-01-23T05:39:26;22.40;20.20;6.00
49343;PMS5003;35210;41.606;-87.602;2023-01-23T05:41:54;38.40;32.20;16.40
49343;PMS5003;35210;41.606;-87.602;2023-01-23T05:44:23;30.60;23.60;13.00
49343;PMS5003;35210;41.606;-87.602;2023-01-23T05:46:52;37.00;29.40;17.20
49343;PMS5003;35210;41.606;-87.602;2023-01-23T05:49:22;28.20;28.20;16.00
49343;PMS5003;35210;41.606;-87.602;2023-01-23T05:51:50;34.60;28.20;14.20
49343;PMS5003;35210;41.606;-87.602;2023-01-23T05:54:18;28.40;25.60;13.00
49343;PMS5003;35210;41.606;-87.602;2023-01-23T05:56:47;30.00;25.40;14.40
49343;PMS5003;35210;41.606;-87.602;2023-01-23T05:59:15;34.00;23.00;14.40
49343;PMS5003;35210;41.606;-87.602;2023-01-23T06:01:43;30.60;25.00;12.40
49343;PMS5003;35210;41.606;-87.602;2023-01-23T06:04:11;30.60;28.00;13.20
49343;PMS5003;35210;41.606;-87.602;2023-01-23T06:06:42;33.40;27.20;17.00
49343;PMS5003;35210;41.606;-87.602;2023-01-23T06:09:10;41.40;29.40;16.00
49343;PMS5003;35210;41.606;-87.602;2023-01-23T06:11:38;33.80;28.20;15.40
49343;PMS5003;35210;41.606;-87.602;2023-01-23T06:14:06;31.40;27.40;13.00
49343;PMS5003;35210;41.606;-87.602;2023-01-23T06:16:36;31.40;30.40;13.80
49343;PMS5003;35210;41.606;-87.602;2023-01-23T06:19:04;31.80;20.40;9.00
49343;PMS5003;35210;41.606;-87.602;2023-01-23T06:21:32;33.80;25.00;11.60
49343;PMS5003;35210;41.606;-87.602;2023-01-23T06:24:02;28.60;25.60;13.40
49343;PMS5003;35210;41.606;-87.602;2023-01-23T06:26:30;31.80;29.60;13.80
49343;PMS5003;35210;41.606;-87.602;2023-01-23T06:29:00;31.40;27.00;13.00
49343;PMS5003;35210;41.606;-87.602;2023-01-23T06:31:28;41.00;30.60;16.80
49343;PMS5003;35210;41.606;-87.602;2023-01-23T06:33:58;33.00;28.20;12.20
49343;PMS5003;35210;41.606;-87.602;2023-01-23T06:36:28;34.40;30.60;15.80
49343;PMS5003;35210;41.606;-87.602;2023-01-23T06:38:56;31.80;29.00;17.60
49343;PMS5003;35210;41.606;-87.602;2023-01-23T06:41:26;40.20;31.40;15.60
49343;PMS5003;35210;41.606;-87.602;2023-01-23T06:43:54;31.00;29.00;12.80
49343;PMS5003;35210;41.606;-87.602;2023-01-23T06:46:23;35.20;32.20;15.20
49343;PMS5003;35210;41.606;-87.602;2023-01-23T06:48:51;41.00;34.40;19.80
49343;PMS5003;35210;41.606;-87.602;2023-01-23T06:51:20;45.60;40.20;20.60
49343;PMS5003;35210;41.606;-87.602;2023-01-23T06:53:48;32.60;31.20;18.80
49343;PMS5003;35210;41.606;-87.602;2023-01-23T06:56:16;37.60;30.20;13.20
49343;PMS5003;35210;41.606;-87.602;2023-01-23T06:58:46;34.40;32.40;17.60
49343;PMS5003;35210;41.606;-87.602;2023-01-23T07:01:15;42.00;34.60;20.00
49343;PMS5003;35210;41.606;-87.602;2023-01-23T07:03:44;39.00;33.80;19.20
49343;PMS5003;35210;41.606;-87.602;2023-01-23T07:06:12;35.00;30.60;19.00
49343;PMS5003;35210;41.606;-87.602;2023-01-23T07:08:42;38.80;35.00;17.00
49343;PMS5003;35210;41.606;-87.602;2023-01-23T07:11:10;47.40;38.60;19.00
49343;PMS5003;35210;41.606;-87.602;2023-01-23T07:13:38;32.00;31.80;18.40
49343;PMS5003;35210;41.606;-87.602;2023-01-23T07:16:08;43.80;32.20;13.20
49343;PMS5003;35210;41.606;-87.602;2023-01-23T07:18:36;33.60;27.80;13.80
49343;PMS5003;35210;41.606;-87.602;2023-01-23T07:21:04;40.60;36.00;19.80
49343;PMS5003;35210;41.606;-87.602;2023-01-23T07:23:33;40.60;36.60;16.20
49343;PMS5003;35210;41.606;-87.602;2023-01-23T07:26:02;40.80;36.00;19.00
49343;PMS5003;35210;41.606;-87.602;2023-01-23T07:28:34;46.00;35.60;16.00
49343;PMS5003;35210;41.606;-87.602;2023-01-23T07:31:03;46.20;37.20;20.40
49343;PMS5003;35210;41.606;-87.602;2023-01-23T07:33:33;41.80;37.60;22.80
49343;PMS5003;35210;41.606;-87.602;2023-01-23T07:36:04;40.40;36.60;15.00
49343;PMS5003;35210;41.606;-87.602;2023-01-23T07:38:32;32.80;32.60;18.20
49343;PMS5003;35210;41.606;-87.602;2023-01-23T07:41:01;44.40;39.00;21.00
49343;PMS5003;35210;41.606;-87.602;2023-01-23T07:43:29;35.00;27.60;15.20
49343;PMS5003;35210;41.606;-87.602;2023-01-23T07:45:57;35.20;32.80;16.00
49343;PMS5003;35210;41.606;-87.602;2023-01-23T07:48:26;51.60;41.00;22.20
49343;PMS5003;35210;41.606;-87.602;2023-01-23T07:50:56;38.20;34.80;19.00
49343;PMS5003;35210;41.606;-87.602;2023-01-23T07:53:27;35.40;29.80;15.00
49343;PMS5003;35210;41.606;-87.602;2023-01-23T07:55:55;40.20;32.80;12.00
49343;PMS5003;35210;41.606;-87.602;2023-01-23T07:58:23;51.00;40.60;22.40
49343;PMS5003;35210;41.606;-87.602;2023-01-23T08:00:52;43.40;39.00;20.40
49343;PMS5003;35210;41.606;-87.602;2023-01-23T08:03:20;45.60;36.60;19.00
49343;PMS5003;35210;41.606;-87.602;2023-01-23T08:05:52;45.60;35.00;18.60
49343;PMS5003;35210;41.606;-87.602;2023-01-23T08:08:23;45.80;33.60;20.00
49343;PMS5003;35210;41.606;-87.602;2023-01-23T08:10:51;48.20;38.60;18.80
49343;PMS5003;35210;41.606;-87.602;2023-01-23T08:13:19;29.40;23.80;11.00
49343;PMS5003;35210;41.606;-87.602;2023-01-23T08:15:47;53.40;37.80;18.20
49343;PMS5003;35210;41.606;-87.602;2023-01-23T08:18:17;44.60;32.80;14.80
49343;PMS5003;35210;41.606;-87.602;2023-01-23T08:20:51;36.60;35.20;18.00
49343;PMS5003;35210;41.606;-87.602;2023-01-23T08:23:22;43.00;34.60;17.20
49343;PMS5003;35210;41.606;-87.602;2023-01-23T08:25:54;42.80;36.60;18.20
49343;PMS5003;35210;41.606;-87.602;2023-01-23T08:28:23;41.20;33.40;15.00
49343;PMS5003;35210;41.606;-87.602;2023-01-23T08:30:52;38.20;32.00;14.60
49343;PMS5003;35210;41.606;-87.602;2023-01-23T08:33:21;32.80;27.40;15.00
49343;PMS5003;35210;41.606;-87.602;2023-01-23T08:35:50;40.00;34.20;14.00
49343;PMS5003;35210;41.606;-87.602;2023-01-23T08:38:21;31.40;27.00;14.60
49343;PMS5003;35210;41.606;-87.602;2023-01-23T08:40:51;37.40;28.40;11.80
49343;PMS5003;35210;41.606;-87.602;2023-01-23T08:43:21;40.20;32.80;15.40
49343;PMS5003;35210;41.606;-87.602;2023-01-23T08:45:49;37.20;31.60;16.20
49343;PMS5003;35210;41.606;-87.602;2023-01-23T08:48:19;37.00;31.20;14.20
49343;PMS5003;35210;41.606;-87.602;2023-01-23T08:50:48;31.40;25.80;11.00
49343;PMS5003;35210;41.606;-87.602;2023-01-23T08:53:18;36.00;28.00;12.20
49343;PMS5003;35210;41.606;-87.602;2023-01-23T08:55:46;37.80;28.40;14.80
49343;PMS5003;35210;41.606;-87.602;2023-01-23T08:58:16;28.40;24.40;14.00
49343;PMS5003;35210;41.606;-87.602;2023-01-23T09:00:46;32.20;23.80;14.00
49343;PMS5003;35210;41.606;-87.602;2023-01-23T09:03:14;26.60;24.80;14.00
49343;PMS5003;35210;41.606;-87.602;2023-01-23T09:05:43;28.40;25.80;11.40
49343;PMS5003;35210;41.606;-87.602;2023-01-23T09:08:11;30.00;27.40;12.00
49343;PMS5003;35210;41.606;-87.602;2023-01-23T09:10:39;26.00;23.80;14.20
49343;PMS5003;35210;41.606;-87.602;2023-01-23T09:13:09;28.20;26.00;10.20
49343;PMS5003;35210;41.606;-87.602;2023-01-23T09:18:08;23.40;22.80;10.60
49343;PMS5003;35210;41.606;-87.602;2023-01-23T09:20:36;18.00;18.00;10.20
49343;PMS5003;35210;41.606;-87.602;2023-01-23T09:23:05;31.00;17.60;11.00
49343;PMS5003;35210;41.606;-87.602;2023-01-23T09:25:34;23.80;20.40;11.00
49343;PMS5003;35210;41.606;-87.602;2023-01-23T09:28:04;20.20;20.20;9.00
49343;PMS5003;35210;41.606;-87.602;2023-01-23T09:30:33;19.60;17.60;8.40
49343;PMS5003;35210;41.606;-87.602;2023-01-23T09:33:03;26.20;23.20;11.00
49343;PMS5003;35210;41.606;-87.602;2023-01-23T09:35:31;19.40;18.00;11.60
49343;PMS5003;35210;41.606;-87.602;2023-01-23T09:37:59;24.80;18.40;7.00
49343;PMS5003;35210;41.606;-87.602;2023-01-23T09:40:30;20.60;17.80;10.60
49343;PMS5003;35210;41.606;-87.602;2023-01-23T09:43:02;20.80;19.60;9.40
49343;PMS5003;35210;41.606;-87.602;2023-01-23T09:45:38;34.20;26.00;13.00
49343;PMS5003;35210;41.606;-87.602;2023-01-23T09:48:15;29.00;21.60;10.80
49343;PMS5003;35210;41.606;-87.602;2023-01-23T09:50:53;29.00;20.60;11.40
49343;PMS5003;35210;41.606;-87.602;2023-01-23T09:53:26;18.20;18.20;10.20
49343;PMS5003;35210;41.606;-87.602;2023-01-23T09:56:02;26.40;21.60;10.80
49343;PMS5003;35210;41.606;-87.602;2023-01-23T09:58:39;23.40;14.60;4.40
49343;PMS5003;35210;41.606;-87.602;2023-01-23T10:01:14;26.60;16.20;6.20
49343;PMS5003;35210;41.606;-87.602;2023-01-23T10:03:45;24.80;21.20;11.00
49343;PMS5003;35210;41.606;-87.602;2023-01-23T10:06:18;20.40;19.40;9.40
49343;PMS5003;35210;41.606;-87.602;2023-01-23T10:08:56;23.20;17.60;5.80
49343;PMS5003;35210;41.606;-87.602;2023-01-23T10:11:36;23.80;19.20;9.60
49343;PMS5003;35210;41.606;-87.602;2023-01-23T10:14:18;18.20;14.40;8.00
49343;PMS5003;35210;41.606;-87.602;2023-01-23T10:17:05;16.20;13.80;4.00
49343;PMS5003;35210;41.606;-87.602;2023-01-23T10:22:40;22.40;14.80;7.00
49343;PMS5003;35210;41.606;-87.602;2023-01-23T10:25:14;13.40;11.40;4.00
49343;PMS5003;35210;41.606;-87.602;2023-01-23T10:27:48;20.80;17.60;7.80
49343;PMS5003;35210;41.606;-87.602;2023-01-23T10:30:18;19.00;14.60;7.60
49343;PMS5003;35210;41.606;-87.602;2023-01-23T10:32:55;16.20;13.40;7.20
49343;PMS5003;35210;41.606;-87.602;2023-01-23T10:35:27;20.80;14.20;6.60
49343;PMS5003;35210;41.606;-87.602;2023-01-23T10:38:04;19.40;16.20;8.20
49343;PMS5003;35210;41.606;-87.602;2023-01-23T10:40:43;20.00;16.00;6.60
49343;PMS5003;35210;41.606;-87.602;2023-01-23T10:43:30;19.60;18.00;9.20
49343;PMS5003;35210;41.606;-87.602;2023-01-23T10:45:58;26.40;20.20;10.00
49343;PMS5003;35210;41.606;-87.602;2023-01-23T10:48:41;19.20;11.80;7.00
49343;PMS5003;35210;41.606;-87.602;2023-01-23T10:51:27;14.20;11.40;4.40
49343;PMS5003;35210;41.606;-87.602;2023-01-23T10:56:56;20.80;20.20;8.40
49343;PMS5003;35210;41.606;-87.602;2023-01-23T10:59:27;31.20;24.60;11.20
49343;PMS5003;35210;41.606;-87.602;2023-01-23T11:02:00;22.20;21.40;8.60
49343;PMS5003;35210;41.606;-87.602;2023-01-23T11:04:43;17.00;13.40;5.40
49343;PMS5003;35210;41.606;-87.602;2023-01-23T11:07:16;13.80;13.00;4.00
49343;PMS5003;35210;41.606;-87.602;2023-01-23T11:09:48;25.40;22.40;11.00
49343;PMS5003;35210;41.606;-87.602;2023-01-23T11:12:20;14.80;12.60;9.20
49343;PMS5003;35210;41.606;-87.602;2023-01-23T11:14:49;21.60;19.80;10.40
49343;PMS5003;35210;41.606;-87.602;2023-01-23T11:17:20;23.00;20.60;10.20
49343;PMS5003;35210;41.606;-87.602;2023-01-23T11:19:50;21.00;17.20;10.00
49343;PMS5003;35210;41.606;-87.602;2023-01-23T11:22:27;16.00;16.00;7.60
49343;PMS5003;35210;41.606;-87.602;2023-01-23T11:24:57;10.20;7.60;1.00
49343;PMS5003;35210;41.606;-87.602;2023-01-23T11:27:27;19.40;16.40;7.20
49343;PMS5003;35210;41.606;-87.602;2023-01-23T11:32:57;26.60;17.20;6.60
49343;PMS5003;35210;41.606;-87.602;2023-01-23T11:35:33;33.80;22.60;10.00
49343;PMS5003;35210;41.606;-87.602;2023-01-23T11:38:16;24.40;22.60;11.20
49343;PMS5003;35210;41.606;-87.602;2023-01-23T11:40:49;26.60;21.00;7.20
49343;PMS5003;35210;41.606;-87.602;2023-01-23T11:43:19;28.00;20.00;9.80
49343;PMS5003;35210;41.606;-87.602;2023-01-23T11:45:53;33.20;24.60;12.60
49343;PMS5003;35210;41.606;-87.602;2023-01-23T11:51:45;24.40;17.20;10.60
49343;PMS5003;35210;41.606;-87.602;2023-01-23T11:54:29;30.00;24.00;10.20
49343;PMS5003;35210;41.606;-87.602;2023-01-23T11:57:14;19.40;17.20;9.20
49343;PMS5003;35210;41.606;-87.602;2023-01-23T11:59:59;27.00;20.00;10.40
49343;PMS5003;35210;41.606;-87.602;2023-01-23T12:02:48;28.40;23.00;11.20
49343;PMS5003;35210;41.606;-87.602;2023-01-23T12:05:56;25.40;21.00;10.80
49343;PMS5003;35210;41.606;-87.602;2023-01-23T12:08:50;26.80;17.20;9.80
49343;PMS5003;35210;41.606;-87.602;2023-01-23T12:11:30;19.60;16.40;8.20
49343;PMS5003;35210;41.606;-87.602;2023-01-23T12:14:10;30.80;20.80;7.20
49343;PMS5003;35210;41.606;-87.602;2023-01-23T12:16:47;30.20;20.80;10.00
49343;PMS5003;35210;41.606;-87.602;2023-01-23T12:19:31;24.40;19.60;11.00
49343;PMS5003;35210;41.606;-87.602;2023-01-23T12:22:11;22.20;21.80;11.60
49343;PMS5003;35210;41.606;-87.602;2023-01-23T12:24:50;34.80;30.20;16.00
49343;PMS5003;35210;41.606;-87.602;2023-01-23T12:27:35;25.60;20.40;8.00
49343;PMS5003;35210;41.606;-87.602;2023-01-23T12:30:17;31.00;24.40;11.40
49343;PMS5003;35210;41.606;-87.602;2023-01-23T12:36:10;36.00;24.80;12.20
49343;PMS5003;35210;41.606;-87.602;2023-01-23T12:38:57;30.80;24.20;12.20
49343;PMS5003;35210;41.606;-87.602;2023-01-23T12:41:37;24.00;24.00;11.20
49343;PMS5003;35210;41.606;-87.602;2023-01-23T12:44:12;27.60;22.20;12.00
49343;PMS5003;35210;41.606;-87.602;2023-01-23T12:46:45;29.40;25.00;11.40
49343;PMS5003;35210;41.606;-87.602;2023-01-23T12:49:20;23.80;19.60;11.60
49343;PMS5003;35210;41.606;-87.602;2023-01-23T12:51:54;29.40;22.80;10.00
49343;PMS5003;35210;41.606;-87.602;2023-01-23T12:54:30;29.00;21.80;7.60
49343;PMS5003;35210;41.606;-87.602;2023-01-23T12:57:04;28.20;22.40;9.80
49343;PMS5003;35210;41.606;-87.602;2023-01-23T12:59:40;27.00;21.20;10.00
49343;PMS5003;35210;41.606;-87.602;2023-01-23T13:02:23;29.00;24.20;11.20
49343;PMS5003;35210;41.606;-87.602;2023-01-23T13:05:04;28.20;22.40;10.20
49343;PMS5003;35210;41.606;-87.602;2023-01-23T13:07:43;35.60;24.80;12.40
49343;PMS5003;35210;41.606;-87.602;2023-01-23T13:13:38;39.20;26.20;12.00
49343;PMS5003;35210;41.606;-87.602;2023-01-23T13:16:12;34.20;20.00;5.80
49343;PMS5003;35210;41.606;-87.602;2023-01-23T13:18:50;29.40;22.40;11.80
49343;PMS5003;35210;41.606;-87.602;2023-01-23T13:21:38;25.20;22.40;10.00
49343;PMS5003;35210;41.606;-87.602;2023-01-23T13:24:38;29.80;28.00;10.60
49343;PMS5003;35210;41.606;-87.602;2023-01-23T13:27:36;28.40;22.00;11.40
49343;PMS5003;35210;41.606;-87.602;2023-01-23T13:36:22;20.20;13.40;3.60
49343;PMS5003;35210;41.606;-87.602;2023-01-23T13:39:19;27.40;23.20;10.00
49343;PMS5003;35210;41.606;-87.602;2023-01-23T13:47:46;23.60;15.00;9.80
49343;PMS5003;35210;41.606;-87.602;2023-01-23T13:50:39;24.40;21.00;11.20
49343;PMS5003;35210;41.606;-87.602;2023-01-23T13:53:14;22.40;18.60;8.80
49343;PMS5003;35210;41.606;-87.602;2023-01-23T13:56:03;20.80;18.20;9.00
49343;PMS5003;35210;41.606;-87.602;2023-01-23T13:58:52;27.80;21.40;11.40
49343;PMS5003;35210;41.606;-87.602;2023-01-23T14:01:21;29.60;27.20;12.20
49343;PMS5003;35210;41.606;-87.602;2023-01-23T14:04:12;24.60;20.60;9.60
49343;PMS5003;35210;41.606;-87.602;2023-01-23T14:07:03;26.40;21.80;10.80
49343;PMS5003;35210;41.606;-87.602;2023-01-23T14:10:18;22.80;21.80;12.40
49343;PMS5003;35210;41.606;-87.602;2023-01-23T14:12:49;26.60;23.20;10.20
49343;PMS5003;35210;41.606;-87.602;2023-01-23T14:15:27;25.40;17.40;9.60
49343;PMS5003;35210;41.606;-87.602;2023-01-23T14:18:17;29.40;23.80;10.00
49343;PMS5003;35210;41.606;-87.602;2023-01-23T14:21:01;32.80;24.00;8.00
49343;PMS5003;35210;41.606;-87.602;2023-01-23T14:23:33;23.40;20.40;9.80
49343;PMS5003;35210;41.606;-87.602;2023-01-23T14:26:06;19.20;17.40;8.20
49343;PMS5003;35210;41.606;-87.602;2023-01-23T14:28:49;24.60;20.20;10.00